YSSYYDBY

Guest
Details From YSSY - Sydney Intl
To YDBY - Derby
Flight Number -
Tags Generated
Created
Modified
Stats Distance 1,783 nm / 3,302 km
Max Altitude 0 ft / 0 m
Waypoints 5
Social Downloads 0
Likes 0
Share VATSIM

Download

Looking for another format? Having issues loading an existing format? Contact us
Advertisement - Login to hide

Notes

Generated

Route

YSSY PUMPA OOMWA CINEI YDBY

ID Type Via Altitude Latitude Longitude Leg Dist Tot Dist Heading (true) Name
O YSSY APT - 0 ft / 0 m -33.94962˚ 151.18832˚ - 0 nm - -
PUMPA FIX - 0 ft / 0 m -31.86833˚ 147.09667˚ 241 nm 241 nm 300° / 302° -
OOMWA FIX - 0 ft / 0 m -28.03006˚ 139.94646˚ 437 nm 678 nm 300° / 304° -
CINEI FIX - 0 ft / 0 m -17.64669˚ 124.01002˚ 1078 nm 1757 nm 302° / 308° -
O YDBY APT - 0 ft / 0 m -17.37458˚ 123.65829˚ 25 nm 1783 nm 309° / 309° Derby

Altitude Profile

Advertisement - Login to hide

Weather


0- 5 10 15 20 25 30 35+ Temperature / ° C

Clouds and Precipitation
Forecast for 2018-05-26 00:00 UTC. Updated 5 hours ago

Ground ~20,000 ft ~40,000 ft Winds

YSSY

Details ICAO YSSY (SYD)
Name Sydney Intl
Region Australia
Timezone Australia/Sydney (UTC+10.0)
Stats Elevation 21 ft / 6 m (AMSL)
Location -33.949273° 151.181347°
Runways 3
Magnetic Variation 12.604° E

METAR

YSSY 260400Z 05008KT 030V100 9999 FEW045 21/09 Q1027 NOSIG

Decode

TAF

TAF YSSY 252309Z 2600/2706 34005KT CAVOK FM260400 03010KT CAVOK FM261200 29008KT CAVOK FM270400 03010KT CAVOK

Decode

Departure Runways

ID Width Length Bearing (true) Bearing (mag) Surface Threshold Offset Overrun Length
07 148 ft / 45 m 8,285 ft / 2,525 m 74.13° 61.53° Asphalt 0 ft / 0 m 0 ft / 0 m
16L 148 ft / 45 m 8,018 ft / 2,444 m 167.81° 155.21° Asphalt 758 ft / 231 m 0 ft / 0 m
16R 148 ft / 45 m 13,033 ft / 3,973 m 167.86° 155.26° Asphalt 279 ft / 85 m 0 ft / 0 m
25 148 ft / 45 m 8,285 ft / 2,525 m 254.12° 241.52° Asphalt 324 ft / 99 m 0 ft / 0 m
34L 148 ft / 45 m 13,033 ft / 3,973 m 347.85° 335.25° Asphalt 0 ft / 0 m 0 ft / 0 m
34R 148 ft / 45 m 8,018 ft / 2,444 m 347.81° 335.21° Asphalt 125 ft / 38 m 0 ft / 0 m

YDBY

Details ICAO YDBY (DRB)
Name Derby
Region Australia
Timezone Australia/Perth (UTC+8.0)
Stats Elevation 24 ft / 7 m (AMSL)
Location -17.371626° 123.661955°
Runways 2
Magnetic Variation 1.938° E

METAR

YDBY 260400Z AUTO 31008KT 9999 // NCD 31/11 Q1012

Decode

TAF

Not found

Destination Runways

ID Width Length Bearing (true) Bearing (mag) Surface Threshold Offset Overrun Length
05 98 ft / 30 m 3,793 ft / 1,156 m 56.00° 54.06° Unknown 0 ft / 0 m 0 ft / 0 m
11 98 ft / 30 m 5,694 ft / 1,736 m 110.50° 108.56° Asphalt 0 ft / 0 m 200 ft / 61 m
23 98 ft / 30 m 3,793 ft / 1,156 m 236.00° 234.06° Unknown 0 ft / 0 m 0 ft / 0 m
29 98 ft / 30 m 5,694 ft / 1,736 m 290.50° 288.56° Asphalt 0 ft / 0 m 299 ft / 91 m